createdAt,value
2017-08-17T00:00:33.025Z,16.07
2017-08-17T00:01:42.884Z,15.97
2017-08-17T00:02:52.417Z,16.01
2017-08-17T00:04:01.952Z,16.01
2017-08-17T00:05:11.487Z,16
2017-08-17T00:06:21.395Z,15.97
2017-08-17T00:07:31.572Z,15.94
2017-08-17T00:08:41.746Z,15.9
2017-08-17T00:09:51.600Z,15.93
2017-08-17T00:11:01.141Z,15.86
2017-08-17T00:12:11.143Z,15.89
2017-08-17T00:13:20.353Z,15.86
2017-08-17T00:14:29.885Z,15.8
2017-08-17T00:15:40.067Z,15.8
2017-08-17T00:16:49.606Z,15.83
2017-08-17T00:17:58.796Z,15.8
2017-08-17T00:19:08.967Z,15.76
2017-08-17T00:20:18.819Z,15.68
2017-08-17T00:21:28.353Z,15.83
2017-08-17T00:22:38.536Z,15.74
2017-08-17T00:23:47.946Z,15.78
2017-08-17T00:24:57.156Z,15.78
2017-08-17T00:26:07.022Z,15.74
2017-08-17T00:27:16.233Z,15.86
2017-08-17T00:28:26.411Z,15.83
2017-08-17T00:29:35.994Z,15.82
2017-08-17T00:30:45.524Z,15.82
2017-08-17T00:31:55.055Z,15.82
2017-08-17T00:33:04.264Z,15.8
2017-08-17T00:34:14.459Z,15.82
2017-08-17T00:35:23.720Z,15.83
2017-08-17T00:36:32.930Z,15.83
2017-08-17T00:37:42.137Z,15.75
2017-08-17T00:38:51.341Z,15.76
2017-08-17T00:40:00.872Z,15.67
2017-08-17T00:41:10.410Z,15.71
2017-08-17T00:42:19.944Z,15.67
2017-08-17T00:43:28.830Z,15.71
2017-08-17T00:44:38.039Z,15.71
2017-08-17T00:45:47.574Z,15.67
2017-08-17T00:46:56.783Z,15.75
2017-08-17T00:48:06.963Z,15.71
2017-08-17T00:49:16.493Z,15.71
2017-08-17T00:50:26.339Z,15.68
2017-08-17T00:51:36.517Z,15.68
2017-08-17T00:52:45.789Z,15.69
2017-08-17T00:53:54.998Z,15.68
2017-08-17T00:55:04.529Z,15.57
2017-08-17T00:56:13.416Z,15.6
2017-08-17T00:57:23.715Z,15.59
2017-08-17T00:58:34.274Z,15.72
2017-08-17T00:59:44.127Z,15.57
2017-08-17T01:00:53.977Z,15.65
2017-08-17T01:02:04.154Z,15.62
2017-08-17T01:03:14.009Z,15.65
2017-08-17T01:04:23.542Z,15.68
2017-08-17T01:05:33.073Z,15.67
2017-08-17T01:06:42.603Z,15.64
2017-08-17T01:07:52.132Z,15.62
2017-08-17T01:09:01.343Z,15.57
2017-08-17T01:10:11.682Z,15.65
2017-08-17T01:11:21.219Z,15.65
2017-08-17T01:12:30.747Z,15.68
2017-08-17T01:13:40.288Z,15.64
2017-08-17T01:14:49.818Z,15.62
2017-08-17T01:15:59.646Z,15.62
2017-08-17T01:17:09.173Z,15.65
2017-08-17T01:18:18.384Z,15.68
2017-08-17T01:19:27.590Z,15.65
2017-08-17T01:20:37.770Z,15.64
2017-08-17T01:21:47.780Z,15.68
2017-08-17T01:22:56.663Z,15.69
2017-08-17T01:24:06.525Z,15.71
2017-08-17T01:25:16.063Z,15.71
2017-08-17T01:26:25.594Z,15.68
2017-08-17T01:27:34.954Z,15.65
2017-08-17T01:28:44.811Z,15.64
2017-08-17T01:29:54.341Z,15.65
2017-08-17T01:31:04.196Z,15.65
2017-08-17T01:32:13.398Z,15.68
2017-08-17T01:33:23.302Z,15.74
2017-08-17T01:34:32.843Z,15.75
2017-08-17T01:35:42.378Z,15.76
2017-08-17T01:36:51.912Z,15.65
2017-08-17T01:38:01.447Z,15.78
2017-08-17T01:39:10.976Z,15.74
2017-08-17T01:40:21.183Z,15.8
2017-08-17T01:41:30.389Z,15.84
2017-08-17T01:42:39.596Z,15.76
2017-08-17T01:43:48.801Z,15.78
2017-08-17T01:44:58.108Z,15.8
2017-08-17T01:46:07.638Z,15.86
2017-08-17T01:47:16.845Z,15.75
2017-08-17T01:48:26.701Z,15.78
2017-08-17T01:49:36.231Z,15.83
2017-08-17T01:50:45.589Z,15.8
2017-08-17T01:51:55.437Z,15.84
2017-08-17T01:53:04.964Z,15.78
2017-08-17T01:54:14.814Z,15.76
2017-08-17T01:55:24.348Z,15.76
2017-08-17T01:56:33.654Z,15.76
2017-08-17T01:57:42.541Z,15.83
2017-08-17T01:58:52.085Z,15.75
2017-08-17T02:00:01.612Z,15.75
2017-08-17T02:01:11.810Z,15.69
2017-08-17T02:02:21.695Z,15.82
2017-08-17T02:03:31.549Z,15.75
2017-08-17T02:04:40.785Z,15.69
2017-08-17T02:05:49.670Z,15.78
2017-08-17T02:06:59.842Z,15.75
2017-08-17T02:08:09.695Z,15.74
2017-08-17T02:09:19.548Z,15.74
2017-08-17T02:10:29.075Z,15.72
2017-08-17T02:11:38.285Z,15.69
2017-08-17T02:12:48.463Z,15.64
2017-08-17T02:13:57.823Z,15.65
2017-08-17T02:15:07.052Z,15.68
2017-08-17T02:16:15.934Z,15.68
2017-08-17T02:17:25.140Z,15.65
2017-08-17T02:18:34.346Z,15.69
2017-08-17T02:19:43.873Z,15.69
2017-08-17T02:20:52.758Z,15.67
2017-08-17T02:22:01.963Z,15.72
2017-08-17T02:23:11.167Z,15.71
2017-08-17T02:24:20.693Z,15.71
2017-08-17T02:25:30.369Z,15.72
2017-08-17T02:26:39.578Z,15.71
2017-08-17T02:27:49.109Z,15.65
2017-08-17T02:28:58.643Z,15.65
2017-08-17T02:30:08.820Z,15.68
2017-08-17T02:31:18.989Z,15.69
2017-08-17T02:32:28.845Z,15.69
2017-08-17T02:33:38.060Z,15.65
2017-08-17T02:34:47.588Z,15.69
2017-08-17T02:35:56.791Z,15.68
2017-08-17T02:37:06.159Z,15.71
2017-08-17T02:38:16.029Z,15.69
2017-08-17T02:39:25.565Z,15.68
2017-08-17T02:40:35.098Z,15.75
2017-08-17T02:41:44.302Z,15.71
2017-08-17T02:42:53.807Z,15.76
2017-08-17T02:44:03.991Z,15.64
2017-08-17T02:45:13.521Z,15.59
2017-08-17T02:46:23.698Z,15.65
2017-08-17T02:47:33.226Z,15.64
2017-08-17T02:48:42.939Z,15.67
2017-08-17T02:49:52.792Z,15.71
2017-08-17T02:51:02.320Z,15.75
2017-08-17T02:52:11.853Z,15.68
2017-08-17T02:53:21.714Z,15.71
2017-08-17T02:54:31.394Z,15.65
2017-08-17T02:55:40.277Z,15.68
2017-08-17T02:56:49.814Z,15.74
2017-08-17T02:57:59.344Z,15.65
2017-08-17T02:59:08.551Z,15.67
2017-08-17T03:00:18.385Z,15.69
2017-08-17T03:01:28.241Z,15.65
2017-08-17T03:02:37.445Z,15.78
2017-08-17T03:03:46.978Z,15.78
2017-08-17T03:04:56.503Z,15.76
2017-08-17T03:06:05.957Z,15.89
2017-08-17T03:07:15.178Z,15.82
2017-08-17T03:08:24.709Z,15.78
2017-08-17T03:09:34.235Z,15.86
2017-08-17T03:10:44.416Z,15.82
2017-08-17T03:11:53.995Z,15.9
2017-08-17T03:13:03.526Z,15.92
2017-08-17T03:14:13.381Z,15.82
2017-08-17T03:15:22.588Z,15.92
2017-08-17T03:16:31.798Z,15.93
2017-08-17T03:17:41.957Z,15.96
2017-08-17T03:18:51.480Z,15.97
2017-08-17T03:20:00.689Z,16
2017-08-17T03:21:10.215Z,15.92
2017-08-17T03:22:19.742Z,15.92
2017-08-17T03:23:28.998Z,15.94
2017-08-17T03:24:38.207Z,15.94
2017-08-17T03:25:47.437Z,15.92
2017-08-17T03:26:57.293Z,15.96
2017-08-17T03:28:06.502Z,15.93
2017-08-17T03:29:16.409Z,15.92
2017-08-17T03:30:25.940Z,15.93
2017-08-17T03:31:35.151Z,15.94
2017-08-17T03:32:44.678Z,15.97
2017-08-17T03:33:54.218Z,15.94
2017-08-17T03:35:04.044Z,15.93
2017-08-17T03:36:13.571Z,15.89
2017-08-17T03:37:22.454Z,15.93
2017-08-17T03:38:31.980Z,15.9
2017-08-17T03:39:40.872Z,15.89
2017-08-17T03:40:50.801Z,15.83
2017-08-17T03:42:00.009Z,15.87
2017-08-17T03:43:09.548Z,15.82
2017-08-17T03:44:20.063Z,15.89
2017-08-17T03:45:29.625Z,15.86
2017-08-17T03:46:38.884Z,15.89
2017-08-17T03:47:48.088Z,15.93
2017-08-17T03:48:56.975Z,15.93
2017-08-17T03:50:06.504Z,15.92
2017-08-17T03:51:16.359Z,15.93
2017-08-17T03:52:26.188Z,15.93
2017-08-17T03:53:35.398Z,15.87
2017-08-17T03:54:44.602Z,15.84
2017-08-17T03:55:54.468Z,15.87
2017-08-17T03:57:04.008Z,15.86
2017-08-17T03:58:14.343Z,15.84
2017-08-17T03:59:23.545Z,15.9
2017-08-17T04:00:32.749Z,15.92
2017-08-17T04:01:42.277Z,15.94
2017-08-17T04:02:51.490Z,15.86
2017-08-17T04:04:00.849Z,15.96
2017-08-17T04:05:10.062Z,15.94
2017-08-17T04:06:19.281Z,15.93
2017-08-17T04:07:28.485Z,15.94
2017-08-17T04:08:37.694Z,15.9
2017-08-17T04:09:47.051Z,15.92
2017-08-17T04:10:56.580Z,15.96
2017-08-17T04:12:06.450Z,16
2017-08-17T04:13:16.299Z,15.96
2017-08-17T04:14:25.501Z,15.92
2017-08-17T04:15:34.436Z,15.97
2017-08-17T04:16:43.970Z,15.92
2017-08-17T04:17:53.233Z,15.94
2017-08-17T04:19:02.440Z,15.97
2017-08-17T04:20:12.290Z,15.94
2017-08-17T04:21:21.225Z,15.94
2017-08-17T04:22:30.430Z,16
2017-08-17T04:23:39.978Z,15.97
2017-08-17T04:24:49.517Z,15.97
2017-08-17T04:25:59.372Z,15.93
2017-08-17T04:27:09.283Z,15.97
2017-08-17T04:28:18.487Z,15.93
2017-08-17T04:29:28.347Z,15.94
2017-08-17T04:30:38.200Z,15.94
2017-08-17T04:31:47.091Z,15.94
2017-08-17T04:32:56.770Z,15.93
2017-08-17T04:34:06.624Z,15.93
2017-08-17T04:35:16.477Z,15.89
2017-08-17T04:36:26.000Z,15.92
2017-08-17T04:37:35.846Z,15.96
2017-08-17T04:38:45.850Z,16.01
2017-08-17T04:39:55.055Z,15.97
2017-08-17T04:41:03.950Z,15.92
2017-08-17T04:42:13.479Z,15.94
2017-08-17T04:43:23.335Z,15.92
2017-08-17T04:44:32.688Z,16.05
2017-08-17T04:45:42.542Z,16
2017-08-17T04:46:52.073Z,15.97
2017-08-17T04:48:00.956Z,15.96
2017-08-17T04:49:10.482Z,15.97
2017-08-17T04:50:20.702Z,16.01
2017-08-17T04:51:29.910Z,16.02
2017-08-17T04:52:39.115Z,16
2017-08-17T04:53:48.324Z,16
2017-08-17T04:54:57.532Z,16.02
2017-08-17T04:56:07.385Z,16.02
2017-08-17T04:57:16.915Z,16
2017-08-17T04:58:26.760Z,16.01
2017-08-17T04:59:36.937Z,16.01
2017-08-17T05:00:46.800Z,16.02
2017-08-17T05:01:56.379Z,15.97
2017-08-17T05:03:06.233Z,16.02
2017-08-17T05:04:15.793Z,16.04
2017-08-17T05:05:25.320Z,16.15
2017-08-17T05:06:35.177Z,16.07
2017-08-17T05:07:44.754Z,16.09
2017-08-17T05:08:54.285Z,16.15
2017-08-17T05:10:03.839Z,16.15
2017-08-17T05:11:13.701Z,16.14
2017-08-17T05:12:23.566Z,16.12
2017-08-17T05:13:33.201Z,16.28
2017-08-17T05:14:43.054Z,16.24
2017-08-17T05:15:52.581Z,16.27
2017-08-17T05:17:01.799Z,16.31
2017-08-17T05:18:10.696Z,16.33
2017-08-17T05:19:19.584Z,16.33
2017-08-17T05:20:29.116Z,16.35
2017-08-17T05:21:38.646Z,16.38
2017-08-17T05:22:48.201Z,16.43
2017-08-17T05:23:57.417Z,16.42
2017-08-17T05:25:07.097Z,16.48
2017-08-17T05:26:15.983Z,16.5
2017-08-17T05:27:25.842Z,16.49
2017-08-17T05:28:35.051Z,16.48
2017-08-17T05:29:44.582Z,16.5
2017-08-17T05:30:53.895Z,16.45
2017-08-17T05:32:03.440Z,16.42
2017-08-17T05:33:13.293Z,16.43
2017-08-17T05:34:22.823Z,16.56
2017-08-17T05:35:32.029Z,16.61
2017-08-17T05:36:41.611Z,16.63
2017-08-17T05:37:50.816Z,16.61
2017-08-17T05:38:59.707Z,16.58
2017-08-17T05:40:09.251Z,16.7
2017-08-17T05:41:18.454Z,16.7
2017-08-17T05:42:28.457Z,16.71
2017-08-17T05:43:38.632Z,16.68
2017-08-17T05:44:47.841Z,16.67
2017-08-17T05:45:57.054Z,16.75
2017-08-17T05:47:06.911Z,16.73
2017-08-17T05:48:16.366Z,16.75
2017-08-17T05:49:25.895Z,16.73
2017-08-17T05:50:36.397Z,16.78
2017-08-17T05:51:45.603Z,16.89
2017-08-17T05:52:54.816Z,16.83
2017-08-17T05:54:04.354Z,16.89
2017-08-17T05:55:13.881Z,16.93
2017-08-17T05:56:23.089Z,16.86
2017-08-17T05:57:32.621Z,16.97
2017-08-17T05:58:41.559Z,17.01
2017-08-17T05:59:51.663Z,17
2017-08-17T06:01:01.194Z,17
2017-08-17T06:02:10.083Z,17.01
2017-08-17T06:03:19.613Z,17.01
2017-08-17T06:04:29.473Z,17.08
2017-08-17T06:05:38.559Z,17.11
2017-08-17T06:06:48.089Z,17.15
2017-08-17T06:07:57.300Z,17.15
2017-08-17T06:09:06.841Z,17.16
2017-08-17T06:10:16.373Z,17.23
2017-08-17T06:11:25.408Z,17.21
2017-08-17T06:12:34.610Z,17.3
2017-08-17T06:13:44.146Z,17.31
2017-08-17T06:14:53.999Z,17.37
2017-08-17T06:16:03.861Z,17.37
2017-08-17T06:17:13.871Z,17.4
2017-08-17T06:18:23.726Z,17.4
2017-08-17T06:19:32.943Z,17.46
2017-08-17T06:20:42.478Z,17.48
2017-08-17T06:21:52.005Z,17.49
2017-08-17T06:23:01.211Z,17.55
2017-08-17T06:24:10.419Z,17.63
2017-08-17T06:25:19.304Z,17.56
2017-08-17T06:26:28.841Z,17.52
2017-08-17T06:27:38.073Z,17.62
2017-08-17T06:28:47.615Z,17.54
2017-08-17T06:29:57.151Z,17.62
2017-08-17T06:31:07.012Z,17.66
2017-08-17T06:32:16.217Z,17.7
2017-08-17T06:33:25.752Z,17.7
2017-08-17T06:34:34.650Z,17.68
2017-08-17T06:35:44.188Z,17.74
2017-08-17T06:36:54.042Z,17.77
2017-08-17T06:38:03.576Z,17.74
2017-08-17T06:39:12.786Z,17.75
2017-08-17T06:40:22.617Z,17.7
2017-08-17T06:41:32.151Z,17.77
2017-08-17T06:42:41.366Z,17.75
2017-08-17T06:43:51.217Z,17.81
2017-08-17T06:45:00.747Z,17.79
2017-08-17T06:46:10.780Z,17.87
2017-08-17T06:47:20.308Z,17.86
2017-08-17T06:48:29.201Z,17.9
2017-08-17T06:49:39.389Z,17.97
2017-08-17T06:50:48.982Z,18.02
2017-08-17T06:51:58.337Z,18.08
2017-08-17T06:53:07.542Z,18.1
2017-08-17T06:54:17.071Z,18.12
2017-08-17T06:55:26.604Z,18.14
2017-08-17T06:56:35.820Z,18.21
2017-08-17T06:57:45.089Z,18.2
2017-08-17T06:58:55.273Z,18.14
2017-08-17T07:00:05.136Z,18.21
2017-08-17T07:01:15.329Z,18.25
2017-08-17T07:02:24.536Z,18.27
2017-08-17T07:03:34.224Z,18.2
2017-08-17T07:04:43.433Z,18.1
2017-08-17T07:05:53.614Z,18.18
2017-08-17T07:07:02.525Z,18.18
2017-08-17T07:08:12.065Z,18.29
2017-08-17T07:09:21.651Z,18.3
2017-08-17T07:10:31.508Z,18.29
2017-08-17T07:11:41.039Z,18.32
2017-08-17T07:12:50.897Z,18.32
2017-08-17T07:14:00.431Z,18.42
2017-08-17T07:15:10.068Z,18.39
2017-08-17T07:16:19.599Z,18.51
2017-08-17T07:17:29.433Z,18.5
2017-08-17T07:18:38.648Z,18.51
2017-08-17T07:19:48.181Z,18.57
2017-08-17T07:20:58.339Z,18.63
2017-08-17T07:22:07.883Z,18.55
2017-08-17T07:23:17.409Z,18.67
2017-08-17T07:24:27.271Z,18.65
2017-08-17T07:25:36.808Z,18.8
2017-08-17T07:26:46.834Z,18.75
2017-08-17T07:27:56.052Z,18.85
2017-08-17T07:29:05.265Z,18.84
2017-08-17T07:30:14.792Z,18.94
2017-08-17T07:31:23.677Z,18.92
2017-08-17T07:32:32.872Z,19.08
2017-08-17T07:33:42.080Z,19.14
2017-08-17T07:34:51.612Z,19.23
2017-08-17T07:36:00.830Z,19.29
2017-08-17T07:37:10.377Z,19.39
2017-08-17T07:38:19.768Z,19.4
2017-08-17T07:39:28.976Z,19.39
2017-08-17T07:40:38.507Z,19.41
2017-08-17T07:41:47.396Z,19.55
2017-08-17T07:42:57.253Z,19.51
2017-08-17T07:44:06.886Z,19.51
2017-08-17T07:45:16.417Z,19.62
2017-08-17T07:46:25.624Z,19.58
2017-08-17T07:47:34.827Z,19.58
2017-08-17T07:48:44.033Z,19.68
2017-08-17T07:49:52.978Z,19.71
2017-08-17T07:51:02.188Z,19.71
2017-08-17T07:52:11.403Z,19.69
2017-08-17T07:53:21.258Z,19.78
2017-08-17T07:54:30.793Z,19.81
2017-08-17T07:55:40.155Z,19.83
2017-08-17T07:56:49.365Z,19.86
2017-08-17T07:57:58.578Z,19.91
2017-08-17T07:59:08.110Z,20.03
2017-08-17T08:00:17.645Z,20.02
2017-08-17T08:01:27.015Z,20.1
2017-08-17T08:02:36.240Z,20.05
2017-08-17T08:03:46.099Z,20.1
2017-08-17T08:04:55.633Z,20.13
2017-08-17T08:06:05.829Z,20.17
2017-08-17T08:07:15.373Z,20.2
2017-08-17T08:08:24.913Z,20.21
2017-08-17T08:09:34.135Z,20.21
2017-08-17T08:10:43.676Z,20.2
2017-08-17T08:11:53.214Z,20.23
2017-08-17T08:13:02.850Z,20.23
2017-08-17T08:14:12.382Z,20.28
2017-08-17T08:15:22.249Z,20.29
2017-08-17T08:16:31.491Z,20.36
2017-08-17T08:17:41.030Z,20.33
2017-08-17T08:18:50.347Z,20.31
2017-08-17T08:20:00.204Z,20.35
2017-08-17T08:21:09.416Z,20.41
2017-08-17T08:22:18.956Z,20.55
2017-08-17T08:23:28.497Z,20.47
2017-08-17T08:24:37.437Z,20.59
2017-08-17T08:25:47.305Z,20.62
2017-08-17T08:26:56.515Z,20.72
2017-08-17T08:28:05.407Z,20.72
2017-08-17T08:29:14.621Z,20.74
2017-08-17T08:30:23.839Z,20.84
2017-08-17T08:31:33.051Z,20.88
2017-08-17T08:32:42.262Z,20.84
2017-08-17T08:33:51.796Z,20.89
2017-08-17T08:35:01.345Z,20.92
2017-08-17T08:36:11.357Z,20.89
2017-08-17T08:37:20.571Z,21.04
2017-08-17T08:38:30.442Z,20.98
2017-08-17T08:39:39.347Z,21.06
2017-08-17T08:40:48.895Z,21.12
2017-08-17T08:41:58.580Z,21.07
2017-08-17T08:43:08.437Z,21.17
2017-08-17T08:44:18.619Z,21.14
2017-08-17T08:45:28.158Z,21.29
2017-08-17T08:46:37.376Z,21.25
2017-08-17T08:47:46.659Z,21.29
2017-08-17T08:48:55.875Z,21.35
2017-08-17T08:50:05.413Z,21.38
2017-08-17T08:51:15.282Z,21.38
2017-08-17T08:52:25.149Z,21.38
2017-08-17T08:53:34.993Z,21.43
2017-08-17T08:54:44.556Z,21.43
2017-08-17T08:55:54.126Z,21.46
2017-08-17T08:57:03.342Z,21.44
2017-08-17T08:58:13.214Z,21.61
2017-08-17T08:59:22.917Z,21.67
2017-08-17T09:00:31.812Z,21.65
2017-08-17T09:01:41.047Z,21.62
2017-08-17T09:02:50.284Z,21.65
2017-08-17T09:04:00.147Z,21.65
2017-08-17T09:05:09.833Z,21.65
2017-08-17T09:06:19.371Z,21.79
2017-08-17T09:07:28.908Z,21.77
2017-08-17T09:08:38.764Z,21.77
2017-08-17T09:09:48.628Z,21.74
2017-08-17T09:10:58.164Z,21.72
2017-08-17T09:12:07.380Z,21.82
2017-08-17T09:13:17.565Z,21.82
2017-08-17T09:14:26.779Z,21.88
2017-08-17T09:15:36.642Z,21.72
2017-08-17T09:16:46.003Z,21.74
2017-08-17T09:17:55.873Z,21.9
2017-08-17T09:19:06.056Z,21.91
2017-08-17T09:20:15.267Z,21.92
2017-08-17T09:21:24.483Z,21.9
2017-08-17T09:22:34.344Z,21.8
2017-08-17T09:23:43.885Z,21.96
2017-08-17T09:24:53.745Z,21.99
2017-08-17T09:26:02.968Z,21.98
2017-08-17T09:27:12.852Z,22
2017-08-17T09:28:22.548Z,22.1
2017-08-17T09:29:31.763Z,22.2
2017-08-17T09:30:41.633Z,22.18
2017-08-17T09:31:51.823Z,22.2
2017-08-17T09:33:01.688Z,22.18
2017-08-17T09:34:11.324Z,22.31
2017-08-17T09:35:20.217Z,22.35
2017-08-17T09:36:30.077Z,22.31
2017-08-17T09:37:38.976Z,22.2
2017-08-17T09:38:48.187Z,22.28
2017-08-17T09:39:57.452Z,22.28
2017-08-17T09:41:06.694Z,22.35
2017-08-17T09:42:16.877Z,22.33
2017-08-17T09:43:26.121Z,22.28
2017-08-17T09:44:35.990Z,22.36
2017-08-17T09:45:45.723Z,22.43
2017-08-17T09:46:55.259Z,22.43
2017-08-17T09:48:04.805Z,22.47
2017-08-17T09:49:14.341Z,22.52
2017-08-17T09:50:23.881Z,22.47
2017-08-17T09:51:33.521Z,22.52
2017-08-17T09:52:43.078Z,22.46
2017-08-17T09:53:52.613Z,22.52
2017-08-17T09:55:01.502Z,22.49
2017-08-17T09:56:11.041Z,22.57
2017-08-17T09:57:20.730Z,22.6
2017-08-17T09:58:30.588Z,22.62
2017-08-17T09:59:39.814Z,22.6
2017-08-17T10:00:50.010Z,22.62
2017-08-17T10:01:59.877Z,22.73
2017-08-17T10:03:09.899Z,22.82
2017-08-17T10:04:19.758Z,22.77
2017-08-17T10:05:29.302Z,22.85
2017-08-17T10:06:38.845Z,22.83
2017-08-17T10:07:48.714Z,22.88
2017-08-17T10:08:58.729Z,22.91
2017-08-17T10:10:08.595Z,22.97
2017-08-17T10:11:17.806Z,23.02
2017-08-17T10:12:27.019Z,23.05
2017-08-17T10:13:36.237Z,23.04
2017-08-17T10:14:45.699Z,23.1
2017-08-17T10:15:55.251Z,23.15
2017-08-17T10:17:05.120Z,23.12
2017-08-17T10:18:14.334Z,23.19
2017-08-17T10:19:24.845Z,23.23
2017-08-17T10:20:34.205Z,23.15
2017-08-17T10:21:43.436Z,23.22
2017-08-17T10:22:52.648Z,23.22
2017-08-17T10:24:02.193Z,23.27
2017-08-17T10:25:11.731Z,23.4
2017-08-17T10:26:21.575Z,23.38
2017-08-17T10:27:31.112Z,23.35
2017-08-17T10:28:40.646Z,23.25
2017-08-17T10:29:50.508Z,23.38
2017-08-17T10:31:00.048Z,23.32
2017-08-17T10:32:10.235Z,23.33
2017-08-17T10:33:19.772Z,23.33
2017-08-17T10:34:29.310Z,23.33
2017-08-17T10:35:38.214Z,23.36
2017-08-17T10:36:47.452Z,23.46
2017-08-17T10:37:56.989Z,23.54
2017-08-17T10:39:06.851Z,23.57
2017-08-17T10:40:16.718Z,23.61
2017-08-17T10:41:26.258Z,23.57
2017-08-17T10:42:35.160Z,23.63
2017-08-17T10:43:44.702Z,23.7
2017-08-17T10:44:53.920Z,23.69
2017-08-17T10:46:03.463Z,23.63
2017-08-17T10:47:13.008Z,23.7
2017-08-17T10:48:22.554Z,23.57
2017-08-17T10:49:32.092Z,23.63
2017-08-17T10:50:41.947Z,23.66
2017-08-17T10:51:51.181Z,23.6
2017-08-17T10:53:00.736Z,23.75
2017-08-17T10:54:10.271Z,23.76
2017-08-17T10:55:19.812Z,23.79
2017-08-17T10:56:28.710Z,23.79
2017-08-17T10:57:38.895Z,23.8
2017-08-17T10:58:47.785Z,23.84
2017-08-17T10:59:57.329Z,23.88
2017-08-17T11:01:07.191Z,23.84
2017-08-17T11:02:17.384Z,23.93
2017-08-17T11:03:27.405Z,23.97
2017-08-17T11:04:36.954Z,23.9
2017-08-17T11:05:46.171Z,23.87
2017-08-17T11:06:55.394Z,23.88
2017-08-17T11:08:04.613Z,23.94
2017-08-17T11:09:14.636Z,23.94
2017-08-17T11:10:23.906Z,23.85
2017-08-17T11:11:33.121Z,23.91
2017-08-17T11:12:42.337Z,23.91
2017-08-17T11:13:51.547Z,23.83
2017-08-17T11:15:00.908Z,23.85
2017-08-17T11:16:10.126Z,23.75
2017-08-17T11:17:19.343Z,23.78
2017-08-17T11:18:28.560Z,23.76
2017-08-17T11:19:38.436Z,23.75
2017-08-17T11:20:48.343Z,23.76
2017-08-17T11:21:57.563Z,23.75
2017-08-17T11:23:07.122Z,23.75
2017-08-17T11:24:16.672Z,23.68
2017-08-17T11:25:25.885Z,23.65
2017-08-17T11:26:35.626Z,23.54
2017-08-17T11:27:45.818Z,23.61
2017-08-17T11:28:54.714Z,23.58
2017-08-17T11:30:04.576Z,23.58
2017-08-17T11:31:13.790Z,23.63
2017-08-17T11:32:23.393Z,23.48
2017-08-17T11:33:32.934Z,23.47
2017-08-17T11:34:42.158Z,23.48
2017-08-17T11:35:51.371Z,23.36
2017-08-17T11:37:00.910Z,23.43
2017-08-17T11:38:11.497Z,23.4
2017-08-17T11:39:21.033Z,23.4
2017-08-17T11:40:30.565Z,23.4
2017-08-17T11:41:39.777Z,23.33
2017-08-17T11:42:49.327Z,23.4
2017-08-17T11:43:58.422Z,23.36
2017-08-17T11:45:08.279Z,23.38
2017-08-17T11:46:17.815Z,23.25
2017-08-17T11:47:27.681Z,23.19
2017-08-17T11:48:36.574Z,23.2
2017-08-17T11:49:45.835Z,23.19
2017-08-17T11:50:54.724Z,23.12
2017-08-17T11:52:04.259Z,23.13
2017-08-17T11:53:13.799Z,23.01
2017-08-17T11:54:23.009Z,23.07
2017-08-17T11:55:32.272Z,22.97
2017-08-17T11:56:42.131Z,22.92
2017-08-17T11:57:51.690Z,22.85
2017-08-17T11:59:01.233Z,22.75
2017-08-17T12:00:11.097Z,22.75
2017-08-17T12:01:20.376Z,22.75
2017-08-17T12:02:30.492Z,22.55
2017-08-17T12:03:40.134Z,22.57
2017-08-17T12:04:49.028Z,22.58
2017-08-17T12:05:58.890Z,22.6
2017-08-17T12:07:08.252Z,22.49
2017-08-17T12:08:18.113Z,22.52
2017-08-17T12:09:28.313Z,22.62
2017-08-17T12:10:37.859Z,22.58
2017-08-17T12:11:47.717Z,22.57
2017-08-17T12:12:57.363Z,22.61
2017-08-17T12:14:06.578Z,22.61
2017-08-17T12:15:16.144Z,22.58
2017-08-17T12:16:25.036Z,22.55
2017-08-17T12:17:34.893Z,22.55
2017-08-17T12:18:44.282Z,22.57
2017-08-17T12:19:53.168Z,22.51
2017-08-17T12:21:02.443Z,22.47
2017-08-17T12:22:11.994Z,22.58
2017-08-17T12:23:21.538Z,22.52
2017-08-17T12:24:31.697Z,22.6
2017-08-17T12:25:41.233Z,22.58
2017-08-17T12:26:51.101Z,22.54
2017-08-17T12:28:00.664Z,22.49
2017-08-17T12:29:10.207Z,22.47
2017-08-17T12:30:19.466Z,22.52
2017-08-17T12:31:29.120Z,22.6
2017-08-17T12:32:38.336Z,22.57
2017-08-17T12:33:48.209Z,22.58
2017-08-17T12:34:57.424Z,22.64
2017-08-17T12:36:07.683Z,22.52
2017-08-17T12:37:16.901Z,22.57
2017-08-17T12:38:26.760Z,22.55
2017-08-17T12:39:36.293Z,22.58
2017-08-17T12:40:46.493Z,22.51
2017-08-17T12:41:56.177Z,22.58
2017-08-17T12:43:06.363Z,22.47
2017-08-17T12:44:16.226Z,22.43
2017-08-17T12:45:26.097Z,22.36
2017-08-17T12:46:36.286Z,22.33
2017-08-17T12:47:46.069Z,22.27
2017-08-17T12:48:55.610Z,22.31
2017-08-17T12:50:05.169Z,22.35
2017-08-17T12:51:15.050Z,22.3
2017-08-17T12:52:24.264Z,22.3
2017-08-17T12:53:33.977Z,22.18
2017-08-17T12:54:42.871Z,22.18
2017-08-17T12:55:52.736Z,22.27
2017-08-17T12:57:01.959Z,22.18
2017-08-17T12:58:11.497Z,22.1
2017-08-17T12:59:22.013Z,22.09
2017-08-17T13:00:31.543Z,22.1
2017-08-17T13:01:41.082Z,21.99
2017-08-17T13:02:50.293Z,22.1
2017-08-17T13:03:59.830Z,22.1
2017-08-17T13:05:09.853Z,22.03
2017-08-17T13:06:19.387Z,22.07
2017-08-17T13:07:29.245Z,22.09
2017-08-17T13:08:38.452Z,22.06
2017-08-17T13:09:47.675Z,22.02
2017-08-17T13:10:57.271Z,22.05
2017-08-17T13:12:07.138Z,21.9
2017-08-17T13:13:16.995Z,22.02
2017-08-17T13:14:26.211Z,21.92
2017-08-17T13:15:35.764Z,21.91
2017-08-17T13:16:45.127Z,21.92
2017-08-17T13:17:54.980Z,21.91
2017-08-17T13:19:04.836Z,21.94
2017-08-17T13:20:14.368Z,22
2017-08-17T13:21:23.594Z,22.02
2017-08-17T13:22:33.757Z,21.99
2017-08-17T13:23:42.981Z,22.02
2017-08-17T13:24:52.198Z,22
2017-08-17T13:26:01.415Z,21.99
2017-08-17T13:27:10.956Z,21.99
2017-08-17T13:28:20.415Z,21.96
2017-08-17T13:29:29.313Z,21.92
2017-08-17T13:30:38.858Z,22.03
2017-08-17T13:31:47.753Z,22.02
2017-08-17T13:32:57.307Z,21.92
2017-08-17T13:34:06.977Z,22.02
2017-08-17T13:35:16.210Z,22
2017-08-17T13:36:25.771Z,22.02
2017-08-17T13:37:34.668Z,21.96
2017-08-17T13:38:43.895Z,22
2017-08-17T13:39:53.832Z,21.96
2017-08-17T13:41:03.076Z,22.02
2017-08-17T13:42:12.300Z,22.05
2017-08-17T13:43:21.524Z,21.99
2017-08-17T13:44:30.756Z,22.03
2017-08-17T13:45:40.786Z,22.1
2017-08-17T13:46:49.716Z,22.09
2017-08-17T13:47:59.274Z,22.1
2017-08-17T13:49:08.825Z,22.17
2017-08-17T13:50:18.381Z,22.1
2017-08-17T13:51:27.937Z,22.1
2017-08-17T13:52:37.182Z,22.02
2017-08-17T13:53:46.078Z,22.03
2017-08-17T13:54:55.332Z,22
2017-08-17T13:56:04.935Z,22.09
2017-08-17T13:57:14.662Z,22.09
2017-08-17T13:58:24.551Z,22.1
2017-08-17T13:59:34.427Z,22.1
2017-08-17T14:00:43.639Z,22.15
2017-08-17T14:01:53.180Z,22.06
2017-08-17T14:03:02.829Z,22.15
2017-08-17T14:04:12.053Z,22.1
2017-08-17T14:05:21.275Z,22.12
2017-08-17T14:06:31.141Z,21.99
2017-08-17T14:07:40.674Z,21.92
2017-08-17T14:08:50.364Z,22
2017-08-17T14:09:59.623Z,21.94
2017-08-17T14:11:09.534Z,21.86
2017-08-17T14:12:18.883Z,21.94
2017-08-17T14:13:28.699Z,21.9
2017-08-17T14:14:38.390Z,21.82
2017-08-17T14:15:47.694Z,21.75
2017-08-17T14:16:57.232Z,21.82
2017-08-17T14:18:06.479Z,21.79
2017-08-17T14:19:16.036Z,21.74
2017-08-17T14:20:25.995Z,21.77
2017-08-17T14:21:34.889Z,21.77
2017-08-17T14:22:44.475Z,21.67
2017-08-17T14:23:53.691Z,21.68
2017-08-17T14:25:03.246Z,21.59
2017-08-17T14:26:13.258Z,21.64
2017-08-17T14:27:22.471Z,21.67
2017-08-17T14:28:32.648Z,21.62
2017-08-17T14:29:41.854Z,21.59
2017-08-17T14:30:51.393Z,21.69
2017-08-17T14:32:01.077Z,21.64
2017-08-17T14:33:10.610Z,21.59
2017-08-17T14:34:20.467Z,21.65
2017-08-17T14:35:30.328Z,21.68
2017-08-17T14:36:40.185Z,21.65
2017-08-17T14:37:50.042Z,21.64
2017-08-17T14:38:59.573Z,21.62
2017-08-17T14:40:09.102Z,21.62
2017-08-17T14:41:18.098Z,21.72
2017-08-17T14:42:27.644Z,21.71
2017-08-17T14:43:37.375Z,21.65
2017-08-17T14:44:46.912Z,21.65
2017-08-17T14:45:56.446Z,21.65
2017-08-17T14:47:06.631Z,21.67
2017-08-17T14:48:15.856Z,21.68
2017-08-17T14:49:25.899Z,21.64
2017-08-17T14:50:35.434Z,21.65
2017-08-17T14:51:44.640Z,21.67
2017-08-17T14:52:54.499Z,21.62
2017-08-17T14:54:04.709Z,21.62
2017-08-17T14:55:14.343Z,21.61
2017-08-17T14:56:23.874Z,21.65
2017-08-17T14:57:32.758Z,21.65
2017-08-17T14:58:41.965Z,21.68
2017-08-17T14:59:51.500Z,21.72